sensor_id;sensor_type;location;lat;lon;timestamp;P1;durP1;ratioP1;P2;durP2;ratioP2
8913;SDS011;4492;48.736;9.092;2022-09-06T00:02:22;3.20;;;3.00;;
8913;SDS011;4492;48.736;9.092;2022-09-06T00:04:47;3.13;;;2.83;;
8913;SDS011;4492;48.736;9.092;2022-09-06T00:07:13;3.27;;;3.07;;
8913;SDS011;4492;48.736;9.092;2022-09-06T00:09:39;3.60;;;3.30;;
8913;SDS011;4492;48.736;9.092;2022-09-06T00:12:05;4.63;;;3.10;;
8913;SDS011;4492;48.736;9.092;2022-09-06T00:14:30;3.47;;;3.17;;
8913;SDS011;4492;48.736;9.092;2022-09-06T00:16:56;4.17;;;3.43;;
8913;SDS011;4492;48.736;9.092;2022-09-06T00:19:21;3.40;;;3.20;;
8913;SDS011;4492;48.736;9.092;2022-09-06T00:21:47;4.43;;;3.73;;
8913;SDS011;4492;48.736;9.092;2022-09-06T00:24:13;4.13;;;3.73;;
8913;SDS011;4492;48.736;9.092;2022-09-06T00:26:38;4.20;;;3.80;;
8913;SDS011;4492;48.736;9.092;2022-09-06T00:29:04;5.53;;;3.67;;
8913;SDS011;4492;48.736;9.092;2022-09-06T00:31:29;6.90;;;3.80;;
8913;SDS011;4492;48.736;9.092;2022-09-06T00:33:55;4.20;;;3.53;;
8913;SDS011;4492;48.736;9.092;2022-09-06T00:36:21;3.70;;;3.40;;
8913;SDS011;4492;48.736;9.092;2022-09-06T00:38:47;3.80;;;3.50;;
8913;SDS011;4492;48.736;9.092;2022-09-06T00:41:13;5.40;;;3.53;;
8913;SDS011;4492;48.736;9.092;2022-09-06T00:43:40;4.93;;;3.63;;
8913;SDS011;4492;48.736;9.092;2022-09-06T00:46:06;4.17;;;3.87;;
8913;SDS011;4492;48.736;9.092;2022-09-06T00:48:34;4.20;;;3.90;;
8913;SDS011;4492;48.736;9.092;2022-09-06T00:51:03;4.30;;;3.90;;
8913;SDS011;4492;48.736;9.092;2022-09-06T00:53:32;5.43;;;3.77;;
8913;SDS011;4492;48.736;9.092;2022-09-06T00:55:58;4.00;;;3.60;;
8913;SDS011;4492;48.736;9.092;2022-09-06T00:58:24;3.73;;;3.40;;
8913;SDS011;4492;48.736;9.092;2022-09-06T01:00:50;3.53;;;3.23;;
8913;SDS011;4492;48.736;9.092;2022-09-06T01:03:15;4.17;;;3.87;;
8913;SDS011;4492;48.736;9.092;2022-09-06T01:11:22;4.40;;;3.80;;
8913;SDS011;4492;48.736;9.092;2022-09-06T01:16:34;3.57;;;3.33;;
8913;SDS011;4492;48.736;9.092;2022-09-06T01:36:37;4.30;;;3.07;;
8913;SDS011;4492;48.736;9.092;2022-09-06T01:39:13;3.93;;;3.40;;
8913;SDS011;4492;48.736;9.092;2022-09-06T01:42:01;3.70;;;3.40;;
8913;SDS011;4492;48.736;9.092;2022-09-06T01:44:36;3.20;;;2.80;;
8913;SDS011;4492;48.736;9.092;2022-09-06T01:47:21;4.30;;;2.80;;
8913;SDS011;4492;48.736;9.092;2022-09-06T02:03:44;3.17;;;2.93;;
8913;SDS011;4492;48.736;9.092;2022-09-06T02:06:31;4.20;;;3.43;;
8913;SDS011;4492;48.736;9.092;2022-09-06T02:09:05;3.47;;;3.20;;
8913;SDS011;4492;48.736;9.092;2022-09-06T02:11:39;4.27;;;3.37;;
8913;SDS011;4492;48.736;9.092;2022-09-06T02:14:13;3.60;;;3.30;;
8913;SDS011;4492;48.736;9.092;2022-09-06T02:16:44;4.03;;;3.60;;
8913;SDS011;4492;48.736;9.092;2022-09-06T02:21:44;4.83;;;4.13;;
8913;SDS011;4492;48.736;9.092;2022-09-06T02:24:15;4.17;;;3.87;;
8913;SDS011;4492;48.736;9.092;2022-09-06T02:26:45;4.73;;;3.80;;
8913;SDS011;4492;48.736;9.092;2022-09-06T02:29:12;6.63;;;3.93;;
8913;SDS011;4492;48.736;9.092;2022-09-06T02:31:48;4.43;;;3.70;;
8913;SDS011;4492;48.736;9.092;2022-09-06T02:34:25;5.13;;;3.47;;
8913;SDS011;4492;48.736;9.092;2022-09-06T02:36:51;8.07;;;4.00;;
8913;SDS011;4492;48.736;9.092;2022-09-06T02:39:18;5.10;;;3.70;;
8913;SDS011;4492;48.736;9.092;2022-09-06T02:41:43;5.17;;;3.70;;
8913;SDS011;4492;48.736;9.092;2022-09-06T02:44:11;4.27;;;3.87;;
8913;SDS011;4492;48.736;9.092;2022-09-06T02:46:37;4.90;;;3.93;;
8913;SDS011;4492;48.736;9.092;2022-09-06T02:49:03;6.30;;;4.10;;
8913;SDS011;4492;48.736;9.092;2022-09-06T02:51:29;4.43;;;3.83;;
8913;SDS011;4492;48.736;9.092;2022-09-06T02:53:55;6.57;;;4.37;;
8913;SDS011;4492;48.736;9.092;2022-09-06T02:56:20;4.30;;;3.40;;
8913;SDS011;4492;48.736;9.092;2022-09-06T02:58:46;4.97;;;3.80;;
8913;SDS011;4492;48.736;9.092;2022-09-06T03:01:16;4.27;;;3.97;;
8913;SDS011;4492;48.736;9.092;2022-09-06T03:03:42;4.17;;;3.80;;
8913;SDS011;4492;48.736;9.092;2022-09-06T03:06:08;4.70;;;4.00;;
8913;SDS011;4492;48.736;9.092;2022-09-06T03:08:33;4.57;;;4.10;;
8913;SDS011;4492;48.736;9.092;2022-09-06T03:11:00;5.17;;;4.70;;
8913;SDS011;4492;48.736;9.092;2022-09-06T03:13:26;5.13;;;4.30;;
8913;SDS011;4492;48.736;9.092;2022-09-06T03:15:52;4.60;;;4.30;;
8913;SDS011;4492;48.736;9.092;2022-09-06T03:18:20;5.17;;;4.67;;
8913;SDS011;4492;48.736;9.092;2022-09-06T03:20:50;5.13;;;4.20;;
8913;SDS011;4492;48.736;9.092;2022-09-06T03:23:22;5.00;;;4.33;;
8913;SDS011;4492;48.736;9.092;2022-09-06T03:25:49;4.30;;;4.00;;
8913;SDS011;4492;48.736;9.092;2022-09-06T03:28:15;6.37;;;4.50;;
8913;SDS011;4492;48.736;9.092;2022-09-06T03:30:43;5.87;;;4.30;;
8913;SDS011;4492;48.736;9.092;2022-09-06T03:33:09;4.80;;;4.37;;
8913;SDS011;4492;48.736;9.092;2022-09-06T03:35:35;4.50;;;4.20;;
8913;SDS011;4492;48.736;9.092;2022-09-06T03:38:01;5.63;;;4.63;;
8913;SDS011;4492;48.736;9.092;2022-09-06T03:40:26;4.53;;;4.13;;
8913;SDS011;4492;48.736;9.092;2022-09-06T03:42:52;4.60;;;4.10;;
8913;SDS011;4492;48.736;9.092;2022-09-06T03:45:17;5.03;;;4.63;;
8913;SDS011;4492;48.736;9.092;2022-09-06T03:47:43;4.80;;;4.40;;
8913;SDS011;4492;48.736;9.092;2022-09-06T03:50:08;4.30;;;3.93;;
8913;SDS011;4492;48.736;9.092;2022-09-06T03:52:34;5.77;;;5.13;;
8913;SDS011;4492;48.736;9.092;2022-09-06T03:55:00;5.03;;;4.63;;
8913;SDS011;4492;48.736;9.092;2022-09-06T03:57:25;7.93;;;4.80;;
8913;SDS011;4492;48.736;9.092;2022-09-06T03:59:51;5.23;;;4.73;;
8913;SDS011;4492;48.736;9.092;2022-09-06T04:02:16;5.50;;;5.00;;
8913;SDS011;4492;48.736;9.092;2022-09-06T04:04:42;6.10;;;5.50;;
8913;SDS011;4492;48.736;9.092;2022-09-06T04:07:07;6.73;;;5.40;;
8913;SDS011;4492;48.736;9.092;2022-09-06T04:09:33;5.80;;;5.23;;
8913;SDS011;4492;48.736;9.092;2022-09-06T04:11:58;6.73;;;5.27;;
8913;SDS011;4492;48.736;9.092;2022-09-06T04:14:24;6.77;;;5.63;;
8913;SDS011;4492;48.736;9.092;2022-09-06T04:16:49;7.07;;;6.00;;
8913;SDS011;4492;48.736;9.092;2022-09-06T04:19:15;7.77;;;5.80;;
8913;SDS011;4492;48.736;9.092;2022-09-06T04:21:41;6.10;;;5.40;;
8913;SDS011;4492;48.736;9.092;2022-09-06T04:24:06;6.03;;;5.43;;
8913;SDS011;4492;48.736;9.092;2022-09-06T04:26:32;6.07;;;5.20;;
8913;SDS011;4492;48.736;9.092;2022-09-06T04:28:58;6.70;;;5.40;;
8913;SDS011;4492;48.736;9.092;2022-09-06T04:31:24;5.97;;;5.37;;
8913;SDS011;4492;48.736;9.092;2022-09-06T04:33:50;7.03;;;6.10;;
8913;SDS011;4492;48.736;9.092;2022-09-06T04:36:15;6.60;;;5.83;;
8913;SDS011;4492;48.736;9.092;2022-09-06T04:38:41;6.50;;;5.83;;
8913;SDS011;4492;48.736;9.092;2022-09-06T04:41:09;6.20;;;5.63;;
8913;SDS011;4492;48.736;9.092;2022-09-06T04:43:36;7.70;;;5.80;;
8913;SDS011;4492;48.736;9.092;2022-09-06T04:46:03;5.97;;;5.33;;
8913;SDS011;4492;48.736;9.092;2022-09-06T04:48:30;5.80;;;5.20;;
8913;SDS011;4492;48.736;9.092;2022-09-06T04:50:55;6.47;;;5.33;;
8913;SDS011;4492;48.736;9.092;2022-09-06T04:53:21;6.73;;;5.53;;
8913;SDS011;4492;48.736;9.092;2022-09-06T04:55:46;8.63;;;5.97;;
8913;SDS011;4492;48.736;9.092;2022-09-06T04:58:12;6.90;;;6.17;;
8913;SDS011;4492;48.736;9.092;2022-09-06T05:00:37;7.90;;;6.30;;
8913;SDS011;4492;48.736;9.092;2022-09-06T05:03:05;6.73;;;6.03;;
8913;SDS011;4492;48.736;9.092;2022-09-06T05:05:31;10.40;;;6.80;;
8913;SDS011;4492;48.736;9.092;2022-09-06T05:07:56;6.10;;;5.50;;
8913;SDS011;4492;48.736;9.092;2022-09-06T05:10:22;9.07;;;6.73;;
8913;SDS011;4492;48.736;9.092;2022-09-06T05:12:49;6.30;;;5.80;;
8913;SDS011;4492;48.736;9.092;2022-09-06T05:15:18;8.07;;;5.77;;
8913;SDS011;4492;48.736;9.092;2022-09-06T05:17:45;8.97;;;7.93;;
8913;SDS011;4492;48.736;9.092;2022-09-06T05:20:10;8.30;;;6.93;;
8913;SDS011;4492;48.736;9.092;2022-09-06T05:22:37;8.33;;;7.00;;
8913;SDS011;4492;48.736;9.092;2022-09-06T05:25:03;8.47;;;6.93;;
8913;SDS011;4492;48.736;9.092;2022-09-06T05:27:28;8.00;;;6.87;;
8913;SDS011;4492;48.736;9.092;2022-09-06T05:29:54;7.57;;;6.40;;
8913;SDS011;4492;48.736;9.092;2022-09-06T05:32:19;7.50;;;6.07;;
8913;SDS011;4492;48.736;9.092;2022-09-06T05:34:45;5.70;;;5.20;;
8913;SDS011;4492;48.736;9.092;2022-09-06T05:37:10;8.27;;;6.70;;
8913;SDS011;4492;48.736;9.092;2022-09-06T05:39:36;7.07;;;5.67;;
8913;SDS011;4492;48.736;9.092;2022-09-06T05:42:01;9.57;;;6.10;;
8913;SDS011;4492;48.736;9.092;2022-09-06T05:44:34;7.53;;;5.77;;
8913;SDS011;4492;48.736;9.092;2022-09-06T05:47:00;6.37;;;5.67;;
8913;SDS011;4492;48.736;9.092;2022-09-06T05:49:28;6.83;;;5.63;;
8913;SDS011;4492;48.736;9.092;2022-09-06T05:51:54;6.40;;;5.80;;
8913;SDS011;4492;48.736;9.092;2022-09-06T05:54:20;6.63;;;6.00;;
8913;SDS011;4492;48.736;9.092;2022-09-06T05:56:46;9.30;;;7.30;;
8913;SDS011;4492;48.736;9.092;2022-09-06T05:59:11;10.87;;;7.03;;
8913;SDS011;4492;48.736;9.092;2022-09-06T06:01:45;7.80;;;6.77;;
8913;SDS011;4492;48.736;9.092;2022-09-06T06:04:17;5.97;;;5.43;;
8913;SDS011;4492;48.736;9.092;2022-09-06T06:06:44;8.03;;;5.93;;
8913;SDS011;4492;48.736;9.092;2022-09-06T06:09:10;5.77;;;5.17;;
8913;SDS011;4492;48.736;9.092;2022-09-06T06:11:39;5.27;;;4.87;;
8913;SDS011;4492;48.736;9.092;2022-09-06T06:14:06;5.27;;;4.77;;
8913;SDS011;4492;48.736;9.092;2022-09-06T06:16:32;5.30;;;4.80;;
8913;SDS011;4492;48.736;9.092;2022-09-06T06:18:58;6.33;;;4.83;;
8913;SDS011;4492;48.736;9.092;2022-09-06T06:21:25;5.77;;;5.13;;
8913;SDS011;4492;48.736;9.092;2022-09-06T06:23:53;5.50;;;5.00;;
8913;SDS011;4492;48.736;9.092;2022-09-06T06:26:20;7.90;;;5.13;;
8913;SDS011;4492;48.736;9.092;2022-09-06T06:28:46;5.17;;;4.60;;
8913;SDS011;4492;48.736;9.092;2022-09-06T06:31:12;7.10;;;5.10;;
8913;SDS011;4492;48.736;9.092;2022-09-06T06:33:38;5.27;;;4.10;;
8913;SDS011;4492;48.736;9.092;2022-09-06T06:36:06;5.50;;;5.00;;
8913;SDS011;4492;48.736;9.092;2022-09-06T06:38:43;6.63;;;4.83;;
8913;SDS011;4492;48.736;9.092;2022-09-06T06:41:14;5.10;;;4.70;;
8913;SDS011;4492;48.736;9.092;2022-09-06T06:43:42;7.53;;;4.87;;
8913;SDS011;4492;48.736;9.092;2022-09-06T06:46:09;4.83;;;4.50;;
8913;SDS011;4492;48.736;9.092;2022-09-06T06:48:39;7.40;;;4.57;;
8913;SDS011;4492;48.736;9.092;2022-09-06T06:51:09;5.10;;;4.60;;
8913;SDS011;4492;48.736;9.092;2022-09-06T06:53:36;4.80;;;4.40;;
8913;SDS011;4492;48.736;9.092;2022-09-06T06:56:12;4.30;;;3.90;;
8913;SDS011;4492;48.736;9.092;2022-09-06T06:58:42;6.07;;;4.63;;
8913;SDS011;4492;48.736;9.092;2022-09-06T07:01:09;5.43;;;3.97;;
8913;SDS011;4492;48.736;9.092;2022-09-06T07:03:34;4.37;;;4.00;;
8913;SDS011;4492;48.736;9.092;2022-09-06T07:06:00;4.03;;;3.70;;
8913;SDS011;4492;48.736;9.092;2022-09-06T07:08:27;4.07;;;3.60;;
8913;SDS011;4492;48.736;9.092;2022-09-06T07:10:52;4.13;;;3.70;;
8913;SDS011;4492;48.736;9.092;2022-09-06T07:13:18;10.37;;;5.70;;
8913;SDS011;4492;48.736;9.092;2022-09-06T07:15:43;4.13;;;3.83;;
8913;SDS011;4492;48.736;9.092;2022-09-06T07:18:09;4.30;;;3.90;;
8913;SDS011;4492;48.736;9.092;2022-09-06T07:20:34;8.50;;;3.83;;
8913;SDS011;4492;48.736;9.092;2022-09-06T07:23:00;5.17;;;4.47;;
8913;SDS011;4492;48.736;9.092;2022-09-06T07:25:28;8.90;;;6.70;;
8913;SDS011;4492;48.736;9.092;2022-09-06T07:27:55;13.93;;;9.07;;
8913;SDS011;4492;48.736;9.092;2022-09-06T07:30:22;6.47;;;5.87;;
8913;SDS011;4492;48.736;9.092;2022-09-06T07:32:47;4.70;;;4.10;;
8913;SDS011;4492;48.736;9.092;2022-09-06T07:35:13;4.50;;;4.10;;
8913;SDS011;4492;48.736;9.092;2022-09-06T07:37:38;5.20;;;4.03;;
8913;SDS011;4492;48.736;9.092;2022-09-06T07:40:04;4.70;;;4.30;;
8913;SDS011;4492;48.736;9.092;2022-09-06T07:42:30;4.53;;;4.10;;
8913;SDS011;4492;48.736;9.092;2022-09-06T07:44:56;4.13;;;3.57;;
8913;SDS011;4492;48.736;9.092;2022-09-06T07:47:21;4.03;;;3.63;;
8913;SDS011;4492;48.736;9.092;2022-09-06T07:49:47;6.17;;;3.83;;
8913;SDS011;4492;48.736;9.092;2022-09-06T07:52:13;3.80;;;3.60;;
8913;SDS011;4492;48.736;9.092;2022-09-06T07:54:38;3.90;;;3.53;;
8913;SDS011;4492;48.736;9.092;2022-09-06T07:57:04;4.27;;;3.73;;
8913;SDS011;4492;48.736;9.092;2022-09-06T07:59:29;5.53;;;3.80;;
8913;SDS011;4492;48.736;9.092;2022-09-06T08:01:55;5.00;;;3.50;;
8913;SDS011;4492;48.736;9.092;2022-09-06T08:04:21;4.27;;;3.90;;
8913;SDS011;4492;48.736;9.092;2022-09-06T08:06:47;4.57;;;3.77;;
8913;SDS011;4492;48.736;9.092;2022-09-06T08:09:14;4.43;;;3.70;;
8913;SDS011;4492;48.736;9.092;2022-09-06T08:11:40;5.17;;;4.00;;
8913;SDS011;4492;48.736;9.092;2022-09-06T08:14:06;5.63;;;3.70;;
8913;SDS011;4492;48.736;9.092;2022-09-06T08:16:33;4.07;;;3.53;;
8913;SDS011;4492;48.736;9.092;2022-09-06T08:19:00;6.73;;;3.80;;
8913;SDS011;4492;48.736;9.092;2022-09-06T08:21:29;4.40;;;3.70;;
8913;SDS011;4492;48.736;9.092;2022-09-06T08:24:00;4.67;;;3.93;;
8913;SDS011;4492;48.736;9.092;2022-09-06T08:26:28;7.00;;;3.80;;
8913;SDS011;4492;48.736;9.092;2022-09-06T08:29:04;4.37;;;2.93;;
8913;SDS011;4492;48.736;9.092;2022-09-06T08:31:31;4.47;;;3.57;;
8913;SDS011;4492;48.736;9.092;2022-09-06T08:33:58;4.77;;;3.50;;
8913;SDS011;4492;48.736;9.092;2022-09-06T08:36:25;3.97;;;3.57;;
8913;SDS011;4492;48.736;9.092;2022-09-06T08:38:53;4.00;;;3.70;;
8913;SDS011;4492;48.736;9.092;2022-09-06T08:41:24;3.57;;;3.20;;
8913;SDS011;4492;48.736;9.092;2022-09-06T08:44:09;5.60;;;3.40;;
8913;SDS011;4492;48.736;9.092;2022-09-06T08:46:45;3.77;;;3.37;;
8913;SDS011;4492;48.736;9.092;2022-09-06T08:49:23;6.13;;;3.33;;
8913;SDS011;4492;48.736;9.092;2022-09-06T09:00:01;3.93;;;3.50;;
8913;SDS011;4492;48.736;9.092;2022-09-06T09:02:40;4.27;;;3.90;;
8913;SDS011;4492;48.736;9.092;2022-09-06T09:05:25;5.17;;;3.47;;
8913;SDS011;4492;48.736;9.092;2022-09-06T09:11:24;3.80;;;3.40;;
8913;SDS011;4492;48.736;9.092;2022-09-06T09:16:40;7.87;;;3.47;;
8913;SDS011;4492;48.736;9.092;2022-09-06T09:19:06;6.37;;;3.53;;
8913;SDS011;4492;48.736;9.092;2022-09-06T09:21:33;6.17;;;3.90;;
8913;SDS011;4492;48.736;9.092;2022-09-06T09:24:02;13.90;;;4.10;;
8913;SDS011;4492;48.736;9.092;2022-09-06T09:26:49;5.90;;;3.40;;
8913;SDS011;4492;48.736;9.092;2022-09-06T09:29:32;6.73;;;3.33;;
8913;SDS011;4492;48.736;9.092;2022-09-06T09:32:29;7.27;;;3.20;;
8913;SDS011;4492;48.736;9.092;2022-09-06T09:35:13;10.07;;;3.40;;
8913;SDS011;4492;48.736;9.092;2022-09-06T09:37:39;8.07;;;3.00;;
8913;SDS011;4492;48.736;9.092;2022-09-06T09:40:04;5.93;;;3.40;;
8913;SDS011;4492;48.736;9.092;2022-09-06T09:42:36;6.87;;;3.10;;
8913;SDS011;4492;48.736;9.092;2022-09-06T09:45:22;5.23;;;3.30;;
8913;SDS011;4492;48.736;9.092;2022-09-06T09:47:50;5.40;;;3.50;;
8913;SDS011;4492;48.736;9.092;2022-09-06T09:52:47;7.60;;;3.60;;
8913;SDS011;4492;48.736;9.092;2022-09-06T09:55:12;5.70;;;3.50;;
8913;SDS011;4492;48.736;9.092;2022-09-06T09:57:42;7.83;;;3.40;;
8913;SDS011;4492;48.736;9.092;2022-09-06T10:00:10;7.60;;;2.90;;
8913;SDS011;4492;48.736;9.092;2022-09-06T10:02:40;6.00;;;3.30;;
8913;SDS011;4492;48.736;9.092;2022-09-06T10:05:27;4.03;;;3.27;;
8913;SDS011;4492;48.736;9.092;2022-09-06T10:07:53;9.90;;;3.70;;
8913;SDS011;4492;48.736;9.092;2022-09-06T10:10:26;4.00;;;3.30;;
8913;SDS011;4492;48.736;9.092;2022-09-06T10:13:06;4.93;;;3.40;;
8913;SDS011;4492;48.736;9.092;2022-09-06T10:15:37;6.80;;;3.63;;
8913;SDS011;4492;48.736;9.092;2022-09-06T10:18:03;4.63;;;3.50;;
8913;SDS011;4492;48.736;9.092;2022-09-06T10:20:40;5.93;;;3.53;;
8913;SDS011;4492;48.736;9.092;2022-09-06T10:23:15;8.50;;;3.70;;
8913;SDS011;4492;48.736;9.092;2022-09-06T10:26:03;6.90;;;3.67;;
8913;SDS011;4492;48.736;9.092;2022-09-06T10:28:45;8.47;;;3.83;;
8913;SDS011;4492;48.736;9.092;2022-09-06T10:34:09;7.93;;;3.47;;
8913;SDS011;4492;48.736;9.092;2022-09-06T10:36:38;5.27;;;3.17;;
8913;SDS011;4492;48.736;9.092;2022-09-06T10:42:26;6.03;;;3.20;;
8913;SDS011;4492;48.736;9.092;2022-09-06T10:45:18;5.93;;;4.23;;
8913;SDS011;4492;48.736;9.092;2022-09-06T10:53:43;3.92;;;3.40;;
8913;SDS011;4492;48.736;9.092;2022-09-06T10:56:21;5.20;;;3.67;;
8913;SDS011;4492;48.736;9.092;2022-09-06T10:59:13;7.27;;;4.20;;
8913;SDS011;4492;48.736;9.092;2022-09-06T11:04:34;4.70;;;3.77;;
8913;SDS011;4492;48.736;9.092;2022-09-06T11:07:24;9.63;;;3.80;;
8913;SDS011;4492;48.736;9.092;2022-09-06T11:12:53;7.17;;;3.83;;
8913;SDS011;4492;48.736;9.092;2022-09-06T11:16:26;4.40;;;3.57;;
8913;SDS011;4492;48.736;9.092;2022-09-06T11:18:46;7.03;;;3.87;;
8913;SDS011;4492;48.736;9.092;2022-09-06T11:24:28;5.97;;;3.47;;
8913;SDS011;4492;48.736;9.092;2022-09-06T11:29:45;6.30;;;3.63;;
8913;SDS011;4492;48.736;9.092;2022-09-06T11:34:58;10.93;;;3.70;;
8913;SDS011;4492;48.736;9.092;2022-09-06T11:37:46;5.00;;;3.60;;
8913;SDS011;4492;48.736;9.092;2022-09-06T11:55:45;7.07;;;3.40;;
8913;SDS011;4492;48.736;9.092;2022-09-06T12:06:13;9.40;;;3.60;;
8913;SDS011;4492;48.736;9.092;2022-09-06T12:08:49;4.73;;;2.90;;
8913;SDS011;4492;48.736;9.092;2022-09-06T12:13:52;8.40;;;3.30;;
8913;SDS011;4492;48.736;9.092;2022-09-06T12:16:25;6.22;;;2.97;;
8913;SDS011;4492;48.736;9.092;2022-09-06T12:19:42;4.97;;;3.08;;
8913;SDS011;4492;48.736;9.092;2022-09-06T12:24:54;5.57;;;2.92;;
8913;SDS011;4492;48.736;9.092;2022-09-06T12:27:26;4.75;;;2.90;;
8913;SDS011;4492;48.736;9.092;2022-09-06T12:29:59;8.55;;;3.20;;
8913;SDS011;4492;48.736;9.092;2022-09-06T12:32:27;3.90;;;3.50;;
8913;SDS011;4492;48.736;9.092;2022-09-06T12:34:55;4.13;;;2.80;;
8913;SDS011;4492;48.736;9.092;2022-09-06T12:37:29;4.47;;;2.67;;
8913;SDS011;4492;48.736;9.092;2022-09-06T12:40:01;4.38;;;2.40;;
8913;SDS011;4492;48.736;9.092;2022-09-06T12:42:31;4.43;;;2.97;;
8913;SDS011;4492;48.736;9.092;2022-09-06T12:45:02;6.63;;;2.90;;
8913;SDS011;4492;48.736;9.092;2022-09-06T12:47:30;4.53;;;2.60;;
8913;SDS011;4492;48.736;9.092;2022-09-06T12:55:16;5.05;;;3.47;;
8913;SDS011;4492;48.736;9.092;2022-09-06T12:57:49;6.78;;;3.35;;
8913;SDS011;4492;48.736;9.092;2022-09-06T13:00:17;6.90;;;4.60;;
8913;SDS011;4492;48.736;9.092;2022-09-06T13:02:49;4.38;;;3.80;;
8913;SDS011;4492;48.736;9.092;2022-09-06T13:05:19;4.93;;;3.83;;
8913;SDS011;4492;48.736;9.092;2022-09-06T13:07:46;3.90;;;3.63;;
8913;SDS011;4492;48.736;9.092;2022-09-06T13:10:15;4.80;;;3.67;;
8913;SDS011;4492;48.736;9.092;2022-09-06T13:12:43;8.30;;;3.90;;
8913;SDS011;4492;48.736;9.092;2022-09-06T13:15:11;6.67;;;3.50;;
8913;SDS011;4492;48.736;9.092;2022-09-06T13:17:41;6.43;;;3.67;;
8913;SDS011;4492;48.736;9.092;2022-09-06T13:20:14;5.80;;;3.60;;
8913;SDS011;4492;48.736;9.092;2022-09-06T13:22:49;6.17;;;3.60;;
8913;SDS011;4492;48.736;9.092;2022-09-06T13:27:44;9.80;;;4.17;;
8913;SDS011;4492;48.736;9.092;2022-09-06T13:30:31;4.97;;;3.70;;
8913;SDS011;4492;48.736;9.092;2022-09-06T13:32:59;8.57;;;4.03;;
8913;SDS011;4492;48.736;9.092;2022-09-06T13:35:26;6.73;;;4.13;;
8913;SDS011;4492;48.736;9.092;2022-09-06T13:40:56;6.77;;;4.50;;
8913;SDS011;4492;48.736;9.092;2022-09-06T13:43:23;7.70;;;4.67;;
8913;SDS011;4492;48.736;9.092;2022-09-06T13:46:05;8.50;;;4.33;;
8913;SDS011;4492;48.736;9.092;2022-09-06T13:48:32;6.93;;;5.10;;
8913;SDS011;4492;48.736;9.092;2022-09-06T13:51:00;4.77;;;4.07;;
8913;SDS011;4492;48.736;9.092;2022-09-06T13:53:27;5.27;;;4.77;;
8913;SDS011;4492;48.736;9.092;2022-09-06T13:55:54;6.97;;;5.30;;
8913;SDS011;4492;48.736;9.092;2022-09-06T13:58:20;16.00;;;6.57;;
8913;SDS011;4492;48.736;9.092;2022-09-06T14:00:45;13.47;;;5.90;;
8913;SDS011;4492;48.736;9.092;2022-09-06T14:03:13;7.70;;;4.97;;
8913;SDS011;4492;48.736;9.092;2022-09-06T14:05:48;7.67;;;4.97;;
8913;SDS011;4492;48.736;9.092;2022-09-06T14:08:14;8.03;;;4.60;;
8913;SDS011;4492;48.736;9.092;2022-09-06T14:10:40;6.03;;;5.00;;
8913;SDS011;4492;48.736;9.092;2022-09-06T14:13:06;6.00;;;4.93;;
8913;SDS011;4492;48.736;9.092;2022-09-06T14:15:32;9.77;;;6.17;;
8913;SDS011;4492;48.736;9.092;2022-09-06T14:17:58;5.60;;;5.00;;
8913;SDS011;4492;48.736;9.092;2022-09-06T14:20:23;5.90;;;4.63;;
8913;SDS011;4492;48.736;9.092;2022-09-06T14:22:49;7.77;;;5.03;;
8913;SDS011;4492;48.736;9.092;2022-09-06T14:25:14;7.50;;;4.47;;
8913;SDS011;4492;48.736;9.092;2022-09-06T14:27:40;5.73;;;4.60;;
8913;SDS011;4492;48.736;9.092;2022-09-06T14:30:06;5.87;;;4.40;;
8913;SDS011;4492;48.736;9.092;2022-09-06T14:32:32;8.93;;;3.83;;
8913;SDS011;4492;48.736;9.092;2022-09-06T14:34:58;5.63;;;4.40;;
8913;SDS011;4492;48.736;9.092;2022-09-06T14:37:24;5.73;;;4.53;;
8913;SDS011;4492;48.736;9.092;2022-09-06T14:39:50;7.60;;;4.80;;
8913;SDS011;4492;48.736;9.092;2022-09-06T14:42:15;7.67;;;4.37;;
8913;SDS011;4492;48.736;9.092;2022-09-06T14:44:41;6.03;;;4.20;;
8913;SDS011;4492;48.736;9.092;2022-09-06T14:47:07;7.20;;;4.23;;
8913;SDS011;4492;48.736;9.092;2022-09-06T14:49:32;5.43;;;4.03;;
8913;SDS011;4492;48.736;9.092;2022-09-06T14:51:58;6.10;;;3.60;;
8913;SDS011;4492;48.736;9.092;2022-09-06T14:54:23;5.93;;;3.50;;
8913;SDS011;4492;48.736;9.092;2022-09-06T14:56:49;6.40;;;3.67;;
8913;SDS011;4492;48.736;9.092;2022-09-06T14:59:14;4.50;;;3.07;;
8913;SDS011;4492;48.736;9.092;2022-09-06T15:01:40;5.40;;;2.83;;
8913;SDS011;4492;48.736;9.092;2022-09-06T15:04:07;5.67;;;2.80;;
8913;SDS011;4492;48.736;9.092;2022-09-06T15:06:34;4.07;;;2.83;;
8913;SDS011;4492;48.736;9.092;2022-09-06T15:09:03;3.37;;;2.90;;
8913;SDS011;4492;48.736;9.092;2022-09-06T15:11:30;5.00;;;2.70;;
8913;SDS011;4492;48.736;9.092;2022-09-06T15:14:01;3.77;;;2.33;;
8913;SDS011;4492;48.736;9.092;2022-09-06T15:16:28;5.03;;;2.60;;
8913;SDS011;4492;48.736;9.092;2022-09-06T15:18:54;5.30;;;2.90;;
8913;SDS011;4492;48.736;9.092;2022-09-06T15:21:20;3.67;;;2.60;;
8913;SDS011;4492;48.736;9.092;2022-09-06T15:23:48;3.70;;;2.53;;
8913;SDS011;4492;48.736;9.092;2022-09-06T15:26:15;4.47;;;2.20;;
8913;SDS011;4492;48.736;9.092;2022-09-06T15:28:41;3.00;;;2.30;;
8913;SDS011;4492;48.736;9.092;2022-09-06T15:31:10;6.13;;;2.50;;
8913;SDS011;4492;48.736;9.092;2022-09-06T15:33:37;4.37;;;3.40;;
8913;SDS011;4492;48.736;9.092;2022-09-06T15:36:03;3.67;;;3.33;;
8913;SDS011;4492;48.736;9.092;2022-09-06T15:38:41;4.23;;;2.73;;
8913;SDS011;4492;48.736;9.092;2022-09-06T15:41:12;5.03;;;4.53;;
8913;SDS011;4492;48.736;9.092;2022-09-06T15:43:44;4.00;;;3.60;;
8913;SDS011;4492;48.736;9.092;2022-09-06T15:46:14;4.80;;;2.70;;
8913;SDS011;4492;48.736;9.092;2022-09-06T15:48:42;4.50;;;3.00;;
8913;SDS011;4492;48.736;9.092;2022-09-06T15:51:10;5.00;;;2.77;;
8913;SDS011;4492;48.736;9.092;2022-09-06T15:53:37;2.50;;;2.10;;
8913;SDS011;4492;48.736;9.092;2022-09-06T15:56:03;5.77;;;2.30;;
8913;SDS011;4492;48.736;9.092;2022-09-06T15:58:29;5.43;;;2.77;;
8913;SDS011;4492;48.736;9.092;2022-09-06T16:03:30;4.03;;;2.47;;
8913;SDS011;4492;48.736;9.092;2022-09-06T16:06:01;2.63;;;2.43;;
8913;SDS011;4492;48.736;9.092;2022-09-06T16:08:29;6.17;;;2.53;;
8913;SDS011;4492;48.736;9.092;2022-09-06T16:10:55;2.37;;;2.20;;
8913;SDS011;4492;48.736;9.092;2022-09-06T16:13:21;3.73;;;3.10;;
8913;SDS011;4492;48.736;9.092;2022-09-06T16:15:56;3.23;;;2.60;;
8913;SDS011;4492;48.736;9.092;2022-09-06T16:18:23;3.63;;;2.70;;
8913;SDS011;4492;48.736;9.092;2022-09-06T16:20:49;5.10;;;2.30;;
8913;SDS011;4492;48.736;9.092;2022-09-06T16:23:14;7.43;;;2.80;;
8913;SDS011;4492;48.736;9.092;2022-09-06T16:25:40;3.63;;;2.70;;
8913;SDS011;4492;48.736;9.092;2022-09-06T16:28:05;5.40;;;2.83;;
8913;SDS011;4492;48.736;9.092;2022-09-06T16:30:31;5.30;;;2.67;;
8913;SDS011;4492;48.736;9.092;2022-09-06T16:32:56;4.00;;;2.70;;
8913;SDS011;4492;48.736;9.092;2022-09-06T16:35:22;3.00;;;2.67;;
8913;SDS011;4492;48.736;9.092;2022-09-06T16:37:47;5.17;;;2.80;;
8913;SDS011;4492;48.736;9.092;2022-09-06T16:40:13;2.73;;;2.53;;
8913;SDS011;4492;48.736;9.092;2022-09-06T16:42:39;4.27;;;2.40;;
8913;SDS011;4492;48.736;9.092;2022-09-06T16:45:04;2.33;;;2.13;;
8913;SDS011;4492;48.736;9.092;2022-09-06T16:47:30;4.57;;;2.50;;
8913;SDS011;4492;48.736;9.092;2022-09-06T16:49:56;2.70;;;2.50;;
8913;SDS011;4492;48.736;9.092;2022-09-06T16:52:21;7.07;;;2.70;;
8913;SDS011;4492;48.736;9.092;2022-09-06T16:54:47;3.87;;;3.00;;
8913;SDS011;4492;48.736;9.092;2022-09-06T16:57:12;4.37;;;3.10;;
8913;SDS011;4492;48.736;9.092;2022-09-06T16:59:38;5.10;;;3.13;;
8913;SDS011;4492;48.736;9.092;2022-09-06T17:02:04;4.77;;;3.40;;
8913;SDS011;4492;48.736;9.092;2022-09-06T17:04:30;2.93;;;2.73;;
8913;SDS011;4492;48.736;9.092;2022-09-06T17:06:56;5.47;;;3.13;;
8913;SDS011;4492;48.736;9.092;2022-09-06T17:09:21;3.63;;;2.70;;
8913;SDS011;4492;48.736;9.092;2022-09-06T17:11:47;5.80;;;3.17;;
8913;SDS011;4492;48.736;9.092;2022-09-06T17:14:14;5.00;;;3.10;;
8913;SDS011;4492;48.736;9.092;2022-09-06T17:16:40;3.17;;;2.60;;
8913;SDS011;4492;48.736;9.092;2022-09-06T17:19:24;2.97;;;2.60;;
8913;SDS011;4492;48.736;9.092;2022-09-06T17:21:49;2.90;;;2.70;;
8913;SDS011;4492;48.736;9.092;2022-09-06T17:24:15;3.03;;;2.60;;
8913;SDS011;4492;48.736;9.092;2022-09-06T17:26:40;4.17;;;3.00;;
8913;SDS011;4492;48.736;9.092;2022-09-06T17:29:06;7.97;;;3.63;;
8913;SDS011;4492;48.736;9.092;2022-09-06T17:31:32;7.27;;;4.57;;
8913;SDS011;4492;48.736;9.092;2022-09-06T17:33:58;4.87;;;3.60;;